Time;durP1;ratioP1;P1;durP2;ratioP2;P2;SDS_P1;SDS_P2;PMS_P1;PMS_P2;Temp;Humidity;BMP_temperature;BMP_pressure;BME280_temperature;BME280_humidity;BME280_pressure;Samples;Min_cycle;Max_cycle;Signal;HPM_P1;HPM_P2
2021/04/07 00:02:08;;;;;;;4.60;1.80;;;5.80;56.00;;;;;;5104428;22;20052;-58
2021/04/07 00:04:35;;;;;;;6.25;1.77;;;5.80;56.30;;;;;;5104278;22;20213;-58
2021/04/07 00:07:01;;;;;;;7.03;1.52;;;5.80;56.50;;;;;;5104774;22;20512;-58
2021/04/07 00:09:27;;;;;;;5.78;1.95;;;5.80;56.80;;;;;;5104452;22;20142;-59
2021/04/07 00:14:19;;;;;;;4.57;1.77;;;5.70;57.30;;;;;;5105793;22;20074;-58
2021/04/07 00:16:47;;;;;;;6.63;1.83;;;5.70;57.50;;;;;;5104302;22;20056;-58
2021/04/07 00:19:13;;;;;;;6.10;1.75;;;5.70;57.70;;;;;;5103720;22;20105;-58
2021/04/07 00:21:39;;;;;;;6.28;2.38;;;5.70;57.90;;;;;;5104180;22;20098;-58
2021/04/07 00:24:05;;;;;;;7.43;1.95;;;5.70;58.20;;;;;;5103803;22;20492;-58
2021/04/07 00:26:33;;;;;;;8.88;1.92;;;5.70;58.60;;;;;;5103086;22;20044;-58
2021/04/07 00:28:59;;;;;;;6.15;1.83;;;5.70;58.90;;;;;;5104198;22;20172;-58
2021/04/07 00:31:25;;;;;;;10.25;1.75;;;5.70;59.10;;;;;;5104601;22;20638;-58
2021/04/07 00:33:50;;;;;;;10.63;2.28;;;5.70;59.40;;;;;;5103865;22;20377;-58
2021/04/07 00:36:16;;;;;;;5.28;1.55;;;5.60;59.40;;;;;;5102996;22;20101;-58
2021/04/07 00:38:42;;;;;;;6.93;1.85;;;5.60;59.50;;;;;;5105411;22;20354;-58
2021/04/07 00:41:08;;;;;;;7.72;2.10;;;5.70;59.60;;;;;;5101653;22;20062;-58
2021/04/07 00:43:34;;;;;;;9.98;1.88;;;5.70;59.60;;;;;;5103411;22;20051;-58
2021/04/07 00:46:00;;;;;;;4.55;1.23;;;5.70;59.70;;;;;;5103032;22;20501;-58
2021/04/07 00:50:52;;;;;;;8.30;1.38;;;5.70;59.80;;;;;;5104618;22;20044;-59
2021/04/07 00:53:17;;;;;;;4.70;1.33;;;5.80;59.90;;;;;;5103252;22;20056;-58
2021/04/07 00:55:45;;;;;;;9.23;1.40;;;5.80;59.90;;;;;;5102674;22;20056;-58
2021/04/07 01:05:30;;;;;;;4.82;1.30;;;6.00;59.70;;;;;;5104017;22;20056;-59
2021/04/07 01:10:26;;;;;;;6.20;1.40;;;6.10;59.20;;;;;;5103886;22;20051;-58
2021/04/07 01:12:53;;;;;;;8.93;1.15;;;6.20;58.90;;;;;;5102692;22;20106;-58
2021/04/07 01:15:19;;;;;;;5.60;1.17;;;6.20;58.40;;;;;;5102224;22;20165;-58
2021/04/07 01:17:45;;;;;;;6.38;1.35;;;6.30;57.90;;;;;;5102966;22;20138;-59
2021/04/07 01:20:18;;;;;;;5.78;1.10;;;6.30;58.00;;;;;;5102344;22;20059;-59
2021/04/07 01:22:48;;;;;;;7.28;1.65;;;6.30;58.00;;;;;;5102348;22;20058;-58
2021/04/07 01:25:14;;;;;;;4.25;1.23;;;6.30;58.00;;;;;;5102018;22;20635;-57
2021/04/07 01:27:40;;;;;;;6.80;1.30;;;6.40;58.20;;;;;;5102584;22;20138;-58
2021/04/07 01:30:08;;;;;;;7.25;1.42;;;6.40;58.70;;;;;;5103501;22;20429;-58
2021/04/07 01:32:38;;;;;;;6.47;1.52;;;6.40;59.30;;;;;;5102716;22;20059;-58
2021/04/07 01:39:59;;;;;;;4.40;1.33;;;6.40;61.40;;;;;;5103443;22;20051;-58
2021/04/07 01:42:26;;;;;;;7.22;1.63;;;6.30;62.10;;;;;;5102134;22;20044;-58
2021/04/07 01:44:52;;;;;;;7.88;1.92;;;6.30;62.60;;;;;;5103388;22;20135;-58
2021/04/07 01:47:18;;;;;;;5.03;1.48;;;6.30;62.90;;;;;;5101801;22;20052;-59
2021/04/07 01:49:45;;;;;;;7.03;1.70;;;6.20;63.20;;;;;;5102172;22;20118;-58
2021/04/07 01:52:10;;;;;;;5.78;1.50;;;6.20;63.70;;;;;;5101764;22;20080;-59
2021/04/07 01:54:36;;;;;;;10.50;1.88;;;6.20;64.00;;;;;;5102241;22;20090;-58
2021/04/07 01:57:02;;;;;;;6.53;1.45;;;6.10;64.60;;;;;;5103348;22;20048;-58
2021/04/07 01:59:30;;;;;;;5.15;1.40;;;6.10;65.10;;;;;;5102309;22;20064;-58
2021/04/07 02:01:57;;;;;;;7.35;1.55;;;6.20;65.50;;;;;;5101452;22;20048;-59
2021/04/07 02:04:24;;;;;;;10.00;1.60;;;6.10;65.80;;;;;;5101601;22;20075;-58
2021/04/07 02:16:37;;;;;;;8.88;1.52;;;6.10;67.10;;;;;;5082441;22;20082;-58
2021/04/07 02:21:35;;;;;;;8.93;2.03;;;6.10;67.90;;;;;;5102154;22;20056;-58
2021/04/07 02:24:01;;;;;;;6.28;1.73;;;6.10;67.90;;;;;;5096693;23;20052;-59
2021/04/07 02:26:27;;;;;;;9.10;1.65;;;6.10;67.90;;;;;;5101159;23;20067;-58
2021/04/07 02:28:53;;;;;;;4.03;1.55;;;6.20;68.00;;;;;;5101128;22;20150;-59
2021/04/07 02:31:19;;;;;;;8.48;1.30;;;6.20;67.60;;;;;;5100912;22;20139;-58
2021/04/07 02:33:45;;;;;;;5.15;1.20;;;6.20;67.70;;;;;;5102229;22;20101;-58
2021/04/07 02:36:11;;;;;;;5.03;1.15;;;6.20;67.80;;;;;;5100530;22;20052;-58
2021/04/07 02:41:02;;;;;;;3.85;1.40;;;6.00;68.40;;;;;;5102506;22;20056;-58
2021/04/07 02:43:28;;;;;;;7.30;1.40;;;6.00;68.90;;;;;;5101128;22;20091;-58
2021/04/07 02:45:54;;;;;;;7.15;1.30;;;5.90;68.90;;;;;;5080544;22;20056;-58
2021/04/07 02:48:20;;;;;;;7.63;1.30;;;5.80;68.90;;;;;;5101063;22;20133;-58
2021/04/07 02:50:46;;;;;;;5.03;1.20;;;5.80;69.00;;;;;;5100960;22;20403;-58
2021/04/07 02:53:12;;;;;;;6.30;1.30;;;5.80;68.80;;;;;;5100936;22;20056;-58
2021/04/07 02:55:38;;;;;;;5.75;1.00;;;5.80;68.70;;;;;;5101142;22;20048;-58
2021/04/07 02:58:04;;;;;;;8.20;1.40;;;5.70;68.80;;;;;;5101872;22;20166;-58
2021/04/07 03:00:30;;;;;;;8.18;1.40;;;5.60;68.90;;;;;;5060793;23;20057;-58
2021/04/07 03:02:55;;;;;;;6.85;1.20;;;5.60;69.30;;;;;;5097916;23;20044;-58
2021/04/07 03:05:21;;;;;;;5.30;1.23;;;5.50;69.50;;;;;;5099873;22;20043;-58
2021/04/07 03:07:47;;;;;;;8.68;1.23;;;5.50;69.90;;;;;;5089729;22;20142;-58
2021/04/07 03:10:13;;;;;;;5.05;1.05;;;5.40;70.30;;;;;;5100461;23;20063;-58
2021/04/07 03:12:41;;;;;;;7.70;1.40;;;5.40;70.70;;;;;;5101907;22;20047;-58
2021/04/07 03:20:00;;;;;;;7.20;1.38;;;5.30;71.70;;;;;;5122560;22;20039;-58
2021/04/07 03:22:26;;;;;;;3.70;1.13;;;5.20;72.10;;;;;;5103785;22;20518;-58
2021/04/07 03:27:18;;;;;;;7.28;1.17;;;5.20;72.60;;;;;;5122340;22;20044;-58
2021/04/07 03:29:44;;;;;;;5.20;1.10;;;5.20;72.80;;;;;;5103971;22;20086;-59
2021/04/07 03:34:35;;;;;;;5.25;1.42;;;5.10;73.30;;;;;;5115147;22;20047;-58
2021/04/07 03:37:01;;;;;;;7.57;1.52;;;5.10;73.60;;;;;;5096810;22;20056;-58
2021/04/07 03:39:27;;;;;;;8.35;2.55;;;5.10;73.80;;;;;;5100364;22;20052;-58
2021/04/07 03:41:53;;;;;;;5.88;1.02;;;5.00;74.00;;;;;;5095865;22;20056;-58
2021/04/07 03:44:22;;;;;;;4.60;1.00;;;5.00;74.20;;;;;;5121334;22;20052;-58
2021/04/07 03:46:45;;;;;;;6.85;1.55;;;4.90;74.50;;;;;;5101320;22;20137;-58
2021/04/07 03:49:11;;;;;;;8.85;1.10;;;4.90;75.00;;;;;;5098930;22;20098;-58
2021/04/07 03:51:36;;;;;;;6.90;1.58;;;4.90;75.30;;;;;;5100610;22;20101;-58
2021/04/07 03:54:03;;;;;;;7.80;1.10;;;4.90;75.60;;;;;;5099834;22;20052;-58
2021/04/07 03:56:28;;;;;;;6.90;1.65;;;4.80;75.80;;;;;;5101142;22;20056;-58
2021/04/07 04:01:20;;;;;;;5.30;1.48;;;4.70;76.90;;;;;;5122495;22;20508;-58
2021/04/07 04:03:46;;;;;;;4.93;1.48;;;4.70;76.70;;;;;;5099891;22;20135;-58
2021/04/07 04:08:38;;;;;;;7.68;1.45;;;4.60;77.10;;;;;;5114723;22;20392;-58
2021/04/07 04:11:04;;;;;;;4.97;1.30;;;4.60;77.30;;;;;;5096192;23;20056;-58
2021/04/07 04:15:55;;;;;;;6.35;1.52;;;4.50;77.60;;;;;;5118471;22;20048;-58
2021/04/07 04:18:21;;;;;;;5.70;1.50;;;4.50;77.80;;;;;;5102734;22;20455;-58
2021/04/07 04:20:47;;;;;;;4.70;1.30;;;4.50;78.00;;;;;;5097999;22;20048;-58
2021/04/07 04:23:13;;;;;;;7.93;1.88;;;4.40;78.10;;;;;;5105094;22;20044;-58
2021/04/07 04:25:39;;;;;;;5.85;1.60;;;4.40;78.40;;;;;;5083142;22;20497;-58
2021/04/07 04:28:05;;;;;;;5.40;1.42;;;4.40;78.50;;;;;;5103623;22;20140;-58
2021/04/07 04:30:31;;;;;;;4.32;1.48;;;4.40;78.80;;;;;;5103780;22;20044;-58
2021/04/07 04:32:57;;;;;;;5.90;1.80;;;4.30;78.90;;;;;;5103458;22;20071;-58
2021/04/07 04:35:23;;;;;;;9.55;1.88;;;4.30;79.30;;;;;;5103403;22;20048;-58
2021/04/07 04:37:49;;;;;;;6.32;2.08;;;4.30;79.60;;;;;;5063001;23;20466;-58
2021/04/07 04:40:16;;;;;;;6.25;1.42;;;4.30;80.00;;;;;;5082376;23;20588;-58
2021/04/07 04:42:42;;;;;;;4.78;1.75;;;4.30;80.10;;;;;;5085722;23;20139;-58
2021/04/07 04:45:09;;;;;;;6.30;1.60;;;4.30;80.20;;;;;;5085646;22;20044;-58
2021/04/07 04:47:36;;;;;;;5.55;1.55;;;4.30;80.30;;;;;;5086061;23;20052;-58
2021/04/07 04:50:08;;;;;;;5.85;1.48;;;4.30;80.60;;;;;;5083165;22;20086;-58
2021/04/07 04:52:34;;;;;;;4.43;1.50;;;4.20;80.80;;;;;;5083341;22;20057;-58
2021/04/07 04:55:03;;;;;;;4.88;1.75;;;4.20;81.10;;;;;;5082879;22;20072;-58
2021/04/07 04:59:54;;;;;;;9.27;1.55;;;4.20;81.50;;;;;;5045915;23;20050;-58
2021/04/07 05:02:20;;;;;;;8.70;2.05;;;4.20;81.80;;;;;;5082158;23;20516;-58
2021/04/07 05:04:46;;;;;;;6.72;1.80;;;4.10;81.80;;;;;;5082547;22;20053;-58
2021/04/07 05:07:12;;;;;;;5.55;1.45;;;4.10;81.90;;;;;;5083062;22;20083;-58
2021/04/07 05:09:38;;;;;;;3.78;1.40;;;4.10;82.20;;;;;;5082853;23;20052;-58
2021/04/07 05:12:04;;;;;;;5.78;1.60;;;4.00;82.30;;;;;;5083581;22;20075;-58
2021/04/07 05:14:30;;;;;;;8.35;2.28;;;4.00;82.50;;;;;;5082863;22;20135;-58
2021/04/07 05:17:06;;;;;;;;;;;;;;;;;;;;;
2021/04/07 05:19:21;;;;;;;4.20;1.50;;;4.00;82.40;;;;;;5084173;22;20076;-58
2021/04/07 05:21:47;;;;;;;7.03;1.90;;;4.00;82.40;;;;;;5083225;22;20044;-58
2021/04/07 05:24:13;;;;;;;7.68;1.83;;;4.00;82.50;;;;;;5082826;22;20056;-58
2021/04/07 05:26:39;;;;;;;7.60;1.88;;;4.00;82.60;;;;;;5082592;23;20078;-58
2021/04/07 05:29:06;;;;;;;8.48;2.00;;;4.00;82.70;;;;;;5103865;22;20052;-58
2021/04/07 05:31:33;;;;;;;5.55;1.60;;;4.00;82.90;;;;;;5082548;22;20049;-58
2021/04/07 05:36:24;;;;;;;10.13;2.03;;;3.90;83.10;;;;;;5104095;22;20047;-58
2021/04/07 05:38:50;;;;;;;6.38;1.77;;;3.90;83.20;;;;;;5103804;22;20056;-58
2021/04/07 05:41:18;;;;;;;7.18;2.10;;;3.90;83.40;;;;;;5101802;22;20076;-58
2021/04/07 05:43:44;;;;;;;6.70;1.70;;;3.90;83.60;;;;;;5103367;22;20060;-58
2021/04/07 05:46:12;;;;;;;9.10;2.20;;;3.80;83.70;;;;;;5102307;22;20586;-58
2021/04/07 05:48:36;;;;;;;5.60;1.77;;;3.80;83.80;;;;;;5104457;22;20055;-58
2021/04/07 05:51:02;;;;;;;5.82;2.03;;;3.80;84.00;;;;;;5101528;22;20588;-58
2021/04/07 05:53:28;;;;;;;9.13;2.53;;;3.70;84.00;;;;;;5102384;22;20068;-58
2021/04/07 05:58:23;;;;;;;9.95;2.00;;;3.70;83.80;;;;;;5103059;22;20058;-58
2021/04/07 06:13:02;;;;;;;10.18;2.38;;;3.70;84.20;;;;;;5103052;22;20044;-58
2021/04/07 06:20:22;;;;;;;8.23;2.38;;;3.70;83.90;;;;;;5081827;22;831614;-58
2021/04/07 06:22:49;;;;;;;8.75;2.25;;;3.70;83.80;;;;;;5101318;22;20083;-58
2021/04/07 06:25:15;;;;;;;7.47;2.30;;;3.80;83.60;;;;;;5103873;22;20051;-58
2021/04/07 06:27:41;;;;;;;6.53;2.70;;;3.80;83.20;;;;;;5101981;22;20052;-58
2021/04/07 06:30:08;;;;;;;8.75;2.83;;;3.90;82.30;;;;;;5102437;22;20135;-58
2021/04/07 06:32:34;;;;;;;6.65;2.58;;;4.00;82.00;;;;;;5101698;22;20142;-58
2021/04/07 06:35:00;;;;;;;5.75;1.92;;;4.10;81.70;;;;;;5101312;22;20063;-58
2021/04/07 06:37:26;;;;;;;9.77;2.47;;;4.10;81.20;;;;;;5101184;22;20060;-58
2021/04/07 06:42:18;;;;;;;10.00;2.33;;;4.20;80.60;;;;;;5102492;22;20193;-58
2021/04/07 06:44:44;;;;;;;23.35;4.03;;;4.20;80.50;;;;;;5100304;22;20539;-59
2021/04/07 06:47:12;;;;;;;8.32;2.92;;;4.20;80.20;;;;;;5042500;22;20045;-59
2021/04/07 06:49:41;;;;;;;9.27;2.80;;;4.20;79.80;;;;;;5083186;22;20129;-61
2021/04/07 06:52:13;;;;;;;12.68;2.40;;;4.20;79.50;;;;;;5062444;22;20044;-59
2021/04/07 06:54:40;;;;;;;9.00;2.50;;;4.20;79.30;;;;;;5061431;23;20167;-59
2021/04/07 06:57:06;;;;;;;8.40;2.75;;;4.20;79.30;;;;;;5100645;22;20052;-60
2021/04/07 06:59:36;;;;;;;9.48;2.97;;;4.30;79.00;;;;;;5100721;22;20067;-61
2021/04/07 07:02:04;;;;;;;5.10;2.53;;;4.30;78.50;;;;;;5100725;22;20139;-60
2021/04/07 07:04:30;;;;;;;6.60;2.67;;;4.40;78.00;;;;;;5100261;22;20063;-58
2021/04/07 07:06:57;;;;;;;9.32;2.83;;;4.40;77.80;;;;;;5097630;22;20083;-60
2021/04/07 07:09:23;;;;;;;9.15;2.75;;;4.40;77.50;;;;;;5098974;22;20547;-58
2021/04/07 07:11:51;;;;;;;6.75;2.58;;;4.40;77.50;;;;;;5079771;22;20054;-57
2021/04/07 07:19:29;;;;;;;7.70;1.88;;;4.70;75.20;;;;;;5101317;22;20056;-59
2021/04/07 07:24:29;;;;;;;3.22;2.15;;;4.80;74.70;;;;;;5100423;22;20536;-62
2021/04/07 07:26:55;;;;;;;5.40;2.13;;;4.90;73.90;;;;;;5073247;22;20061;-63
2021/04/07 07:31:59;;;;;;;5.07;2.05;;;5.40;73.60;;;;;;5120205;22;20047;-60
2021/04/07 07:34:26;;;;;;;7.35;2.30;;;5.70;71.70;;;;;;5099888;22;20396;-58
2021/04/07 07:36:53;;;;;;;5.30;2.28;;;5.80;69.50;;;;;;5094091;22;20454;-60
2021/04/07 07:39:27;;;;;;;6.10;2.10;;;5.80;69.40;;;;;;5100959;23;20064;-62
2021/04/07 07:44:20;;;;;;;4.28;2.00;;;5.60;69.00;;;;;;5100355;22;20080;-59
2021/04/07 07:49:14;;;;;;;6.72;2.22;;;5.70;68.80;;;;;;5118783;22;20055;-59
2021/04/07 07:51:45;;;;;;;4.53;1.65;;;5.70;68.60;;;;;;5095551;22;20081;-58
2021/04/07 07:54:16;;;;;;;7.90;2.10;;;5.80;68.80;;;;;;5125472;22;20550;-59
2021/04/07 07:56:42;;;;;;;7.57;2.00;;;5.90;68.60;;;;;;5124590;22;20047;-64
2021/04/07 07:59:08;;;;;;;5.70;2.28;;;5.90;67.90;;;;;;5103881;22;20549;-65
2021/04/07 08:01:45;;;;;;;6.78;2.17;;;5.90;68.20;;;;;;5095165;22;20072;-64
2021/04/07 08:06:37;;;;;;;5.85;2.20;;;6.20;67.10;;;;;;5103767;22;20047;-64
2021/04/07 08:09:04;;;;;;;4.05;1.80;;;6.40;66.20;;;;;;5098653;22;20060;-60
2021/04/07 08:16:23;;;;;;;3.90;1.70;;;6.60;64.70;;;;;;5123372;22;20516;-60
2021/04/07 08:18:50;;;;;;;5.10;1.77;;;6.80;64.10;;;;;;5104413;22;20536;-60
2021/04/07 08:26:26;;;;;;;4.80;1.75;;;7.10;63.10;;;;;;5124206;22;20079;-65
2021/04/07 08:31:19;;;;;;;5.60;2.10;;;7.20;60.60;;;;;;5083949;22;20048;-64
2021/04/07 08:38:47;;;;;;;5.25;1.95;;;7.30;60.20;;;;;;5103349;22;20094;-60
2021/04/07 08:41:19;;;;;;;4.85;2.00;;;7.40;59.40;;;;;;5102283;22;20369;-63
2021/04/07 08:43:45;;;;;;;9.05;2.05;;;7.40;59.00;;;;;;5104266;22;20520;-60
2021/04/07 08:51:10;;;;;;;4.45;2.30;;;7.70;57.00;;;;;;5103310;22;20044;-60
2021/04/07 08:58:54;;;;;;;8.63;2.40;;;8.10;55.00;;;;;;5063893;22;20479;-61
2021/04/07 09:09:01;;;;;;;5.60;2.08;;;8.40;51.60;;;;;;5103138;22;20040;-65
2021/04/07 09:11:38;;;;;;;7.13;2.28;;;8.40;51.70;;;;;;5100555;22;20075;-61
2021/04/07 09:14:06;;;;;;;4.30;2.13;;;8.50;52.10;;;;;;5094376;28;20048;-64
2021/04/07 09:16:35;;;;;;;9.75;2.25;;;8.60;50.70;;;;;;5084600;22;20139;-62
2021/04/07 09:19:23;;;;;;;6.32;1.80;;;8.60;49.80;;;;;;5082803;22;20052;-63
2021/04/07 09:21:58;;;;;;;5.30;2.00;;;8.60;49.40;;;;;;5037897;23;20064;-61
2021/04/07 09:24:27;;;;;;;7.05;1.98;;;8.60;48.90;;;;;;5101901;23;20563;-60
2021/04/07 09:29:19;;;;;;;3.63;2.10;;;8.90;49.00;;;;;;5102632;22;20109;-60
2021/04/07 09:31:46;;;;;;;8.52;2.28;;;9.00;48.40;;;;;;5095247;22;20408;-60
2021/04/07 09:36:50;;;;;;;;;;;;;;;;;;;;;
2021/04/07 09:39:14;;;;;;;5.50;2.20;;;9.00;47.80;;;;;;5119807;22;20048;-59
2021/04/07 09:49:11;;;;;;;6.75;2.40;;;9.50;46.00;;;;;;5101924;22;20431;-60
2021/04/07 09:54:12;;;;;;;5.18;2.38;;;9.60;46.70;;;;;;5121317;22;20055;-63
2021/04/07 09:56:55;;;;;;;10.73;4.28;;;9.60;45.40;;;;;;5080211;22;20064;-62
2021/04/07 09:59:42;;;;;;;13.23;3.90;;;9.70;46.00;;;;;;5100039;22;20059;-63
2021/04/07 10:02:13;;;;;;;6.40;2.13;;;9.80;44.10;;;;;;5100139;22;20481;-62
2021/04/07 10:04:43;;;;;;;7.45;1.60;;;10.00;43.60;;;;;;5093180;23;20059;-62
2021/04/07 10:10:01;;;;;;;8.60;3.78;;;10.10;43.20;;;;;;5100614;22;20059;-63
2021/04/07 10:19:53;;;;;;;8.52;1.67;;;10.40;41.10;;;;;;5077737;22;20535;-62
2021/04/07 10:25:01;;;;;;;6.00;1.80;;;10.50;39.60;;;;;;5101358;22;20048;-62
2021/04/07 10:27:25;;;;;;;7.10;1.65;;;10.40;40.70;;;;;;5102028;22;20796;-62
2021/04/07 10:30:04;;;;;;;9.82;2.15;;;10.50;41.20;;;;;;5080251;22;20059;-65
